sensor_id;sensor_type;location;lat;lon;timestamp;temperature;humidity
26051;DHT22;13825;53.496;10.020;2022-09-09T00:01:46;14.20;99.90
26051;DHT22;13825;53.496;10.020;2022-09-09T00:04:25;14.30;99.90
26051;DHT22;13825;53.496;10.020;2022-09-09T00:07:03;14.20;99.90
26051;DHT22;13825;53.496;10.020;2022-09-09T00:09:36;14.20;99.90
26051;DHT22;13825;53.496;10.020;2022-09-09T00:12:11;14.30;99.90
26051;DHT22;13825;53.496;10.020;2022-09-09T00:14:47;14.20;99.90
26051;DHT22;13825;53.496;10.020;2022-09-09T00:17:25;14.20;99.90
26051;DHT22;13825;53.496;10.020;2022-09-09T00:19:58;14.30;99.90
26051;DHT22;13825;53.496;10.020;2022-09-09T00:22:29;14.20;99.90
26051;DHT22;13825;53.496;10.020;2022-09-09T00:25:02;14.20;99.90
26051;DHT22;13825;53.496;10.020;2022-09-09T00:27:34;14.20;99.90
26051;DHT22;13825;53.496;10.020;2022-09-09T00:30:14;14.10;99.90
26051;DHT22;13825;53.496;10.020;2022-09-09T00:32:44;14.20;99.90
26051;DHT22;13825;53.496;10.020;2022-09-09T00:35:17;14.10;99.90
26051;DHT22;13825;53.496;10.020;2022-09-09T00:37:46;14.10;99.90
26051;DHT22;13825;53.496;10.020;2022-09-09T00:40:22;14.10;99.90
26051;DHT22;13825;53.496;10.020;2022-09-09T00:42:53;14.10;99.90
26051;DHT22;13825;53.496;10.020;2022-09-09T00:45:38;14.10;99.90
26051;DHT22;13825;53.496;10.020;2022-09-09T00:48:10;13.90;99.90
26051;DHT22;13825;53.496;10.020;2022-09-09T00:50:46;14.00;99.90
26051;DHT22;13825;53.496;10.020;2022-09-09T00:53:31;14.00;99.90
26051;DHT22;13825;53.496;10.020;2022-09-09T00:56:07;14.00;99.90
26051;DHT22;13825;53.496;10.020;2022-09-09T00:58:36;14.00;99.90
26051;DHT22;13825;53.496;10.020;2022-09-09T01:01:05;14.00;99.90
26051;DHT22;13825;53.496;10.020;2022-09-09T01:03:35;14.00;99.90
26051;DHT22;13825;53.496;10.020;2022-09-09T01:06:15;14.00;99.90
26051;DHT22;13825;53.496;10.020;2022-09-09T01:08:57;14.00;99.90
26051;DHT22;13825;53.496;10.020;2022-09-09T01:11:27;14.00;99.90
26051;DHT22;13825;53.496;10.020;2022-09-09T01:14:03;14.00;99.90
26051;DHT22;13825;53.496;10.020;2022-09-09T01:16:36;13.90;99.90
26051;DHT22;13825;53.496;10.020;2022-09-09T01:19:07;13.90;99.90
26051;DHT22;13825;53.496;10.020;2022-09-09T01:21:42;14.00;99.90
26051;DHT22;13825;53.496;10.020;2022-09-09T01:24:22;14.10;99.90
26051;DHT22;13825;53.496;10.020;2022-09-09T01:26:55;14.00;99.90
26051;DHT22;13825;53.496;10.020;2022-09-09T01:29:23;14.00;99.90
26051;DHT22;13825;53.496;10.020;2022-09-09T01:31:53;13.90;99.90
26051;DHT22;13825;53.496;10.020;2022-09-09T01:34:22;13.90;99.90
26051;DHT22;13825;53.496;10.020;2022-09-09T01:36:56;13.90;99.90
26051;DHT22;13825;53.496;10.020;2022-09-09T01:39:24;13.90;99.90
26051;DHT22;13825;53.496;10.020;2022-09-09T01:41:53;13.90;99.90
26051;DHT22;13825;53.496;10.020;2022-09-09T01:44:22;13.90;99.90
26051;DHT22;13825;53.496;10.020;2022-09-09T01:46:49;13.80;99.90
26051;DHT22;13825;53.496;10.020;2022-09-09T01:49:17;13.80;99.90
26051;DHT22;13825;53.496;10.020;2022-09-09T01:51:46;13.80;99.90
26051;DHT22;13825;53.496;10.020;2022-09-09T01:54:15;13.80;99.90
26051;DHT22;13825;53.496;10.020;2022-09-09T01:56:50;13.80;99.90
26051;DHT22;13825;53.496;10.020;2022-09-09T01:59:38;13.90;99.90
26051;DHT22;13825;53.496;10.020;2022-09-09T02:02:10;13.80;99.90
26051;DHT22;13825;53.496;10.020;2022-09-09T02:04:40;13.70;99.90
26051;DHT22;13825;53.496;10.020;2022-09-09T02:07:17;13.70;99.90
26051;DHT22;13825;53.496;10.020;2022-09-09T02:09:51;13.70;99.90
26051;DHT22;13825;53.496;10.020;2022-09-09T02:12:21;13.70;99.90
26051;DHT22;13825;53.496;10.020;2022-09-09T02:14:56;13.70;99.90
26051;DHT22;13825;53.496;10.020;2022-09-09T02:17:26;13.70;99.90
26051;DHT22;13825;53.496;10.020;2022-09-09T02:19:57;13.70;99.90
26051;DHT22;13825;53.496;10.020;2022-09-09T02:22:28;13.60;99.90
26051;DHT22;13825;53.496;10.020;2022-09-09T02:25:00;13.50;99.90
26051;DHT22;13825;53.496;10.020;2022-09-09T02:27:27;13.60;99.90
26051;DHT22;13825;53.496;10.020;2022-09-09T02:29:57;13.50;99.90
26051;DHT22;13825;53.496;10.020;2022-09-09T02:32:28;13.50;99.90
26051;DHT22;13825;53.496;10.020;2022-09-09T02:34:59;13.40;99.90
26051;DHT22;13825;53.496;10.020;2022-09-09T02:37:29;13.50;99.90
26051;DHT22;13825;53.496;10.020;2022-09-09T02:39:58;13.50;99.90
26051;DHT22;13825;53.496;10.020;2022-09-09T02:42:25;13.50;99.90
26051;DHT22;13825;53.496;10.020;2022-09-09T02:44:52;13.40;99.90
26051;DHT22;13825;53.496;10.020;2022-09-09T02:47:26;13.40;99.90
26051;DHT22;13825;53.496;10.020;2022-09-09T02:50:02;13.50;99.90
26051;DHT22;13825;53.496;10.020;2022-09-09T02:52:44;13.50;99.90
26051;DHT22;13825;53.496;10.020;2022-09-09T02:55:17;13.40;99.90
26051;DHT22;13825;53.496;10.020;2022-09-09T02:57:46;13.60;99.90
26051;DHT22;13825;53.496;10.020;2022-09-09T03:00:14;13.50;99.90
26051;DHT22;13825;53.496;10.020;2022-09-09T03:02:42;13.50;99.90
26051;DHT22;13825;53.496;10.020;2022-09-09T03:05:10;13.40;99.90
26051;DHT22;13825;53.496;10.020;2022-09-09T03:07:38;13.50;99.90
26051;DHT22;13825;53.496;10.020;2022-09-09T03:10:07;13.50;99.90
26051;DHT22;13825;53.496;10.020;2022-09-09T03:12:36;13.40;99.90
26051;DHT22;13825;53.496;10.020;2022-09-09T03:15:03;13.30;99.90
26051;DHT22;13825;53.496;10.020;2022-09-09T03:17:30;13.40;99.90
26051;DHT22;13825;53.496;10.020;2022-09-09T03:19:58;13.40;99.90
26051;DHT22;13825;53.496;10.020;2022-09-09T03:22:25;13.40;99.90
26051;DHT22;13825;53.496;10.020;2022-09-09T03:24:52;13.40;99.90
26051;DHT22;13825;53.496;10.020;2022-09-09T03:27:19;13.10;99.90
26051;DHT22;13825;53.496;10.020;2022-09-09T03:29:46;13.40;99.90
26051;DHT22;13825;53.496;10.020;2022-09-09T03:32:16;13.30;99.90
26051;DHT22;13825;53.496;10.020;2022-09-09T03:34:43;13.20;99.90
26051;DHT22;13825;53.496;10.020;2022-09-09T03:37:11;13.00;99.90
26051;DHT22;13825;53.496;10.020;2022-09-09T03:39:38;13.10;99.90
26051;DHT22;13825;53.496;10.020;2022-09-09T03:42:42;13.10;99.90
26051;DHT22;13825;53.496;10.020;2022-09-09T03:45:23;13.20;99.90
26051;DHT22;13825;53.496;10.020;2022-09-09T03:47:50;13.10;99.90
26051;DHT22;13825;53.496;10.020;2022-09-09T03:50:17;13.10;99.90
26051;DHT22;13825;53.496;10.020;2022-09-09T03:52:45;13.00;99.90
26051;DHT22;13825;53.496;10.020;2022-09-09T03:55:15;13.00;99.90
26051;DHT22;13825;53.496;10.020;2022-09-09T03:57:42;12.90;99.90
26051;DHT22;13825;53.496;10.020;2022-09-09T04:00:09;12.80;99.90
26051;DHT22;13825;53.496;10.020;2022-09-09T04:02:42;12.90;99.90
26051;DHT22;13825;53.496;10.020;2022-09-09T04:05:13;12.70;99.90
26051;DHT22;13825;53.496;10.020;2022-09-09T04:07:40;12.70;99.90
26051;DHT22;13825;53.496;10.020;2022-09-09T04:10:08;12.70;99.90
26051;DHT22;13825;53.496;10.020;2022-09-09T04:12:35;12.60;99.90
26051;DHT22;13825;53.496;10.020;2022-09-09T04:15:03;12.70;99.90
26051;DHT22;13825;53.496;10.020;2022-09-09T04:17:29;12.60;99.90
26051;DHT22;13825;53.496;10.020;2022-09-09T04:19:56;12.60;99.90
26051;DHT22;13825;53.496;10.020;2022-09-09T04:22:23;12.60;99.90
26051;DHT22;13825;53.496;10.020;2022-09-09T04:24:50;12.50;99.90
26051;DHT22;13825;53.496;10.020;2022-09-09T04:27:18;12.60;99.90
26051;DHT22;13825;53.496;10.020;2022-09-09T04:29:45;12.60;99.90
26051;DHT22;13825;53.496;10.020;2022-09-09T04:32:11;12.50;99.90
26051;DHT22;13825;53.496;10.020;2022-09-09T04:34:39;12.60;99.90
26051;DHT22;13825;53.496;10.020;2022-09-09T04:37:06;12.70;99.90
26051;DHT22;13825;53.496;10.020;2022-09-09T04:39:33;12.70;99.90
26051;DHT22;13825;53.496;10.020;2022-09-09T04:42:00;12.70;99.90
26051;DHT22;13825;53.496;10.020;2022-09-09T04:44:28;12.70;99.90
26051;DHT22;13825;53.496;10.020;2022-09-09T04:46:55;12.70;99.90
26051;DHT22;13825;53.496;10.020;2022-09-09T04:49:23;12.70;99.90
26051;DHT22;13825;53.496;10.020;2022-09-09T04:51:50;12.80;99.90
26051;DHT22;13825;53.496;10.020;2022-09-09T04:54:17;12.80;99.90
26051;DHT22;13825;53.496;10.020;2022-09-09T04:56:44;12.60;99.90
26051;DHT22;13825;53.496;10.020;2022-09-09T04:59:11;12.70;99.90
26051;DHT22;13825;53.496;10.020;2022-09-09T05:01:39;12.70;99.90
26051;DHT22;13825;53.496;10.020;2022-09-09T05:04:06;12.70;99.90
26051;DHT22;13825;53.496;10.020;2022-09-09T05:06:34;12.60;99.90
26051;DHT22;13825;53.496;10.020;2022-09-09T05:09:02;12.50;99.90
26051;DHT22;13825;53.496;10.020;2022-09-09T05:11:30;12.50;99.90
26051;DHT22;13825;53.496;10.020;2022-09-09T05:13:58;12.50;99.90
26051;DHT22;13825;53.496;10.020;2022-09-09T05:16:24;12.50;99.90
26051;DHT22;13825;53.496;10.020;2022-09-09T05:18:53;12.40;99.90
26051;DHT22;13825;53.496;10.020;2022-09-09T05:21:22;12.40;99.90
26051;DHT22;13825;53.496;10.020;2022-09-09T05:23:49;12.50;99.90
26051;DHT22;13825;53.496;10.020;2022-09-09T05:26:18;12.60;99.90
26051;DHT22;13825;53.496;10.020;2022-09-09T05:28:46;12.60;99.90
26051;DHT22;13825;53.496;10.020;2022-09-09T05:31:15;12.50;99.90
26051;DHT22;13825;53.496;10.020;2022-09-09T05:33:43;12.60;99.90
26051;DHT22;13825;53.496;10.020;2022-09-09T05:36:14;12.50;99.90
26051;DHT22;13825;53.496;10.020;2022-09-09T05:38:42;12.70;99.90
26051;DHT22;13825;53.496;10.020;2022-09-09T05:41:09;12.80;99.90
26051;DHT22;13825;53.496;10.020;2022-09-09T05:43:37;12.90;99.90
26051;DHT22;13825;53.496;10.020;2022-09-09T05:46:06;13.00;99.90
26051;DHT22;13825;53.496;10.020;2022-09-09T05:48:34;13.00;99.90
26051;DHT22;13825;53.496;10.020;2022-09-09T05:51:03;13.10;99.90
26051;DHT22;13825;53.496;10.020;2022-09-09T05:53:31;13.10;99.90
26051;DHT22;13825;53.496;10.020;2022-09-09T05:56:01;13.30;99.90
26051;DHT22;13825;53.496;10.020;2022-09-09T05:58:29;13.30;99.90
26051;DHT22;13825;53.496;10.020;2022-09-09T06:01:04;13.40;99.90
26051;DHT22;13825;53.496;10.020;2022-09-09T06:03:31;13.50;99.90
26051;DHT22;13825;53.496;10.020;2022-09-09T06:05:59;13.50;99.90
26051;DHT22;13825;53.496;10.020;2022-09-09T06:08:26;13.80;99.90
26051;DHT22;13825;53.496;10.020;2022-09-09T06:11:01;13.70;99.90
26051;DHT22;13825;53.496;10.020;2022-09-09T06:13:28;13.70;99.90
26051;DHT22;13825;53.496;10.020;2022-09-09T06:15:55;13.70;99.90
26051;DHT22;13825;53.496;10.020;2022-09-09T06:18:21;13.70;99.90
26051;DHT22;13825;53.496;10.020;2022-09-09T06:20:56;13.70;99.90
26051;DHT22;13825;53.496;10.020;2022-09-09T06:23:23;13.80;99.90
26051;DHT22;13825;53.496;10.020;2022-09-09T06:25:50;13.80;99.90
26051;DHT22;13825;53.496;10.020;2022-09-09T06:28:19;13.80;99.90
26051;DHT22;13825;53.496;10.020;2022-09-09T06:30:45;13.90;99.90
26051;DHT22;13825;53.496;10.020;2022-09-09T06:33:12;13.90;99.90
26051;DHT22;13825;53.496;10.020;2022-09-09T06:35:39;13.90;99.90
26051;DHT22;13825;53.496;10.020;2022-09-09T06:38:06;14.00;99.90
26051;DHT22;13825;53.496;10.020;2022-09-09T06:40:34;14.00;99.90
26051;DHT22;13825;53.496;10.020;2022-09-09T06:43:00;14.10;99.90
26051;DHT22;13825;53.496;10.020;2022-09-09T06:45:29;14.10;99.90
26051;DHT22;13825;53.496;10.020;2022-09-09T06:47:56;14.20;99.90
26051;DHT22;13825;53.496;10.020;2022-09-09T06:50:23;14.20;99.90
26051;DHT22;13825;53.496;10.020;2022-09-09T06:52:50;14.30;99.90
26051;DHT22;13825;53.496;10.020;2022-09-09T06:55:17;14.40;99.90
26051;DHT22;13825;53.496;10.020;2022-09-09T06:57:44;14.50;99.90
26051;DHT22;13825;53.496;10.020;2022-09-09T07:00:12;14.50;99.90
26051;DHT22;13825;53.496;10.020;2022-09-09T07:02:40;14.50;99.90
26051;DHT22;13825;53.496;10.020;2022-09-09T07:05:08;14.40;99.90
26051;DHT22;13825;53.496;10.020;2022-09-09T07:07:35;14.60;99.90
26051;DHT22;13825;53.496;10.020;2022-09-09T07:10:02;14.70;99.90
26051;DHT22;13825;53.496;10.020;2022-09-09T07:12:29;14.70;99.90
26051;DHT22;13825;53.496;10.020;2022-09-09T07:14:56;14.80;99.90
26051;DHT22;13825;53.496;10.020;2022-09-09T07:17:23;14.80;99.90
26051;DHT22;13825;53.496;10.020;2022-09-09T07:19:52;14.80;99.90
26051;DHT22;13825;53.496;10.020;2022-09-09T07:22:18;14.90;99.90
26051;DHT22;13825;53.496;10.020;2022-09-09T07:24:45;15.00;99.90
26051;DHT22;13825;53.496;10.020;2022-09-09T07:27:12;15.00;99.90
26051;DHT22;13825;53.496;10.020;2022-09-09T07:29:39;15.00;99.90
26051;DHT22;13825;53.496;10.020;2022-09-09T07:32:06;15.10;99.90
26051;DHT22;13825;53.496;10.020;2022-09-09T07:34:33;15.10;99.90
26051;DHT22;13825;53.496;10.020;2022-09-09T07:37:02;15.20;99.90
26051;DHT22;13825;53.496;10.020;2022-09-09T07:39:29;15.30;99.90
26051;DHT22;13825;53.496;10.020;2022-09-09T07:41:56;15.40;99.90
26051;DHT22;13825;53.496;10.020;2022-09-09T07:44:24;15.40;99.90
26051;DHT22;13825;53.496;10.020;2022-09-09T07:46:52;15.40;99.90
26051;DHT22;13825;53.496;10.020;2022-09-09T07:49:19;15.60;99.90
26051;DHT22;13825;53.496;10.020;2022-09-09T07:51:47;15.50;99.90
26051;DHT22;13825;53.496;10.020;2022-09-09T07:54:18;15.70;99.90
26051;DHT22;13825;53.496;10.020;2022-09-09T07:56:46;15.80;99.90
26051;DHT22;13825;53.496;10.020;2022-09-09T07:59:13;15.90;99.90
26051;DHT22;13825;53.496;10.020;2022-09-09T08:01:41;16.10;99.90
26051;DHT22;13825;53.496;10.020;2022-09-09T08:04:11;16.10;99.90
26051;DHT22;13825;53.496;10.020;2022-09-09T08:06:42;15.90;99.90
26051;DHT22;13825;53.496;10.020;2022-09-09T08:09:10;16.10;99.90
26051;DHT22;13825;53.496;10.020;2022-09-09T08:11:39;16.10;99.90
26051;DHT22;13825;53.496;10.020;2022-09-09T08:14:07;16.30;99.90
26051;DHT22;13825;53.496;10.020;2022-09-09T08:16:36;16.30;99.90
26051;DHT22;13825;53.496;10.020;2022-09-09T08:19:04;16.60;99.90
26051;DHT22;13825;53.496;10.020;2022-09-09T08:21:31;16.50;99.90
26051;DHT22;13825;53.496;10.020;2022-09-09T08:24:00;16.50;99.90
26051;DHT22;13825;53.496;10.020;2022-09-09T08:26:29;16.60;99.90
26051;DHT22;13825;53.496;10.020;2022-09-09T08:28:59;16.60;99.90
26051;DHT22;13825;53.496;10.020;2022-09-09T08:31:27;16.60;99.90
26051;DHT22;13825;53.496;10.020;2022-09-09T08:33:55;16.70;99.90
26051;DHT22;13825;53.496;10.020;2022-09-09T08:36:24;16.80;99.90
26051;DHT22;13825;53.496;10.020;2022-09-09T08:38:53;16.60;99.90
26051;DHT22;13825;53.496;10.020;2022-09-09T08:44:31;16.70;99.90
26051;DHT22;13825;53.496;10.020;2022-09-09T08:47:07;16.60;99.90
26051;DHT22;13825;53.496;10.020;2022-09-09T08:49:50;16.80;99.90
26051;DHT22;13825;53.496;10.020;2022-09-09T08:52:25;16.90;99.90
26051;DHT22;13825;53.496;10.020;2022-09-09T08:54:58;17.20;99.90
26051;DHT22;13825;53.496;10.020;2022-09-09T08:57:31;17.50;99.90
26051;DHT22;13825;53.496;10.020;2022-09-09T09:00:00;17.80;99.90
26051;DHT22;13825;53.496;10.020;2022-09-09T09:02:34;17.90;99.90
26051;DHT22;13825;53.496;10.020;2022-09-09T09:05:12;18.20;99.90
26051;DHT22;13825;53.496;10.020;2022-09-09T09:07:52;18.10;99.90
26051;DHT22;13825;53.496;10.020;2022-09-09T09:10:35;18.20;99.90
26051;DHT22;13825;53.496;10.020;2022-09-09T09:13:07;18.20;99.90
26051;DHT22;13825;53.496;10.020;2022-09-09T09:15:41;18.10;99.90
26051;DHT22;13825;53.496;10.020;2022-09-09T09:18:12;18.30;99.90
26051;DHT22;13825;53.496;10.020;2022-09-09T09:20:47;18.10;99.90
26051;DHT22;13825;53.496;10.020;2022-09-09T09:23:21;18.20;99.90
26051;DHT22;13825;53.496;10.020;2022-09-09T09:25:48;18.20;99.90
26051;DHT22;13825;53.496;10.020;2022-09-09T09:28:18;18.40;99.90
26051;DHT22;13825;53.496;10.020;2022-09-09T09:30:51;18.50;99.90
26051;DHT22;13825;53.496;10.020;2022-09-09T09:33:22;18.40;99.90
26051;DHT22;13825;53.496;10.020;2022-09-09T09:35:51;18.70;99.90
26051;DHT22;13825;53.496;10.020;2022-09-09T09:38:21;18.60;99.90
26051;DHT22;13825;53.496;10.020;2022-09-09T09:40:49;18.70;99.90
26051;DHT22;13825;53.496;10.020;2022-09-09T09:43:20;18.70;99.90
26051;DHT22;13825;53.496;10.020;2022-09-09T09:45:49;18.70;99.90
26051;DHT22;13825;53.496;10.020;2022-09-09T09:48:16;18.60;99.90
26051;DHT22;13825;53.496;10.020;2022-09-09T09:50:48;18.50;99.90
26051;DHT22;13825;53.496;10.020;2022-09-09T09:53:24;18.80;99.90
26051;DHT22;13825;53.496;10.020;2022-09-09T09:55:56;18.90;99.90
26051;DHT22;13825;53.496;10.020;2022-09-09T09:58:25;19.10;99.90
26051;DHT22;13825;53.496;10.020;2022-09-09T10:00:54;19.10;99.90
26051;DHT22;13825;53.496;10.020;2022-09-09T10:03:25;19.40;99.90
26051;DHT22;13825;53.496;10.020;2022-09-09T10:05:52;19.40;99.90
26051;DHT22;13825;53.496;10.020;2022-09-09T10:08:20;19.60;99.90
26051;DHT22;13825;53.496;10.020;2022-09-09T10:11:17;19.90;99.90
26051;DHT22;13825;53.496;10.020;2022-09-09T10:13:56;19.80;99.90
26051;DHT22;13825;53.496;10.020;2022-09-09T10:16:40;20.00;99.90
26051;DHT22;13825;53.496;10.020;2022-09-09T10:19:13;20.30;99.90
26051;DHT22;13825;53.496;10.020;2022-09-09T10:21:56;20.30;99.90
26051;DHT22;13825;53.496;10.020;2022-09-09T10:27:29;20.70;99.90
26051;DHT22;13825;53.496;10.020;2022-09-09T10:30:09;20.60;99.90
26051;DHT22;13825;53.496;10.020;2022-09-09T10:32:59;20.40;99.90
26051;DHT22;13825;53.496;10.020;2022-09-09T10:35:30;20.10;99.90
26051;DHT22;13825;53.496;10.020;2022-09-09T10:38:16;20.10;99.90
26051;DHT22;13825;53.496;10.020;2022-09-09T10:40:59;20.20;99.90
26051;DHT22;13825;53.496;10.020;2022-09-09T10:43:46;20.00;99.90
26051;DHT22;13825;53.496;10.020;2022-09-09T10:46:23;20.10;99.90
26051;DHT22;13825;53.496;10.020;2022-09-09T10:49:06;20.00;99.90
26051;DHT22;13825;53.496;10.020;2022-09-09T10:51:47;20.00;99.90
26051;DHT22;13825;53.496;10.020;2022-09-09T10:54:33;20.10;99.90
26051;DHT22;13825;53.496;10.020;2022-09-09T10:57:10;20.20;99.90
26051;DHT22;13825;53.496;10.020;2022-09-09T10:59:43;20.30;99.90
26051;DHT22;13825;53.496;10.020;2022-09-09T11:02:15;20.80;99.90
26051;DHT22;13825;53.496;10.020;2022-09-09T11:04:50;20.90;99.90
26051;DHT22;13825;53.496;10.020;2022-09-09T11:07:27;21.00;99.90
26051;DHT22;13825;53.496;10.020;2022-09-09T11:09:59;21.00;99.90
26051;DHT22;13825;53.496;10.020;2022-09-09T11:12:28;21.00;99.90
26051;DHT22;13825;53.496;10.020;2022-09-09T11:15:01;20.90;99.90
26051;DHT22;13825;53.496;10.020;2022-09-09T11:17:35;20.70;99.90
26051;DHT22;13825;53.496;10.020;2022-09-09T11:20:11;20.70;99.90
26051;DHT22;13825;53.496;10.020;2022-09-09T11:22:44;20.80;99.90
26051;DHT22;13825;53.496;10.020;2022-09-09T11:25:18;20.40;99.90
26051;DHT22;13825;53.496;10.020;2022-09-09T11:28:09;20.30;99.90
26051;DHT22;13825;53.496;10.020;2022-09-09T11:30:48;20.40;99.90
26051;DHT22;13825;53.496;10.020;2022-09-09T11:36:46;20.20;99.90
26051;DHT22;13825;53.496;10.020;2022-09-09T11:42:17;19.90;99.90
26051;DHT22;13825;53.496;10.020;2022-09-09T11:44:45;19.90;99.90
26051;DHT22;13825;53.496;10.020;2022-09-09T11:47:23;19.90;99.90
26051;DHT22;13825;53.496;10.020;2022-09-09T11:49:55;20.10;99.90
26051;DHT22;13825;53.496;10.020;2022-09-09T11:52:35;20.70;99.90
26051;DHT22;13825;53.496;10.020;2022-09-09T11:55:09;21.50;99.90
26051;DHT22;13825;53.496;10.020;2022-09-09T11:57:38;21.70;99.90
26051;DHT22;13825;53.496;10.020;2022-09-09T12:00:06;21.50;99.90
26051;DHT22;13825;53.496;10.020;2022-09-09T12:02:34;21.30;99.90
26051;DHT22;13825;53.496;10.020;2022-09-09T12:05:24;21.20;99.90
26051;DHT22;13825;53.496;10.020;2022-09-09T12:08:09;21.10;99.90
26051;DHT22;13825;53.496;10.020;2022-09-09T12:10:39;21.40;99.90
26051;DHT22;13825;53.496;10.020;2022-09-09T12:13:25;21.50;99.90
26051;DHT22;13825;53.496;10.020;2022-09-09T12:16:28;21.50;99.90
26051;DHT22;13825;53.496;10.020;2022-09-09T12:19:30;21.60;99.90
26051;DHT22;13825;53.496;10.020;2022-09-09T12:22:19;21.00;99.90
26051;DHT22;13825;53.496;10.020;2022-09-09T12:24:54;20.90;99.90
26051;DHT22;13825;53.496;10.020;2022-09-09T12:28:16;20.80;99.90
26051;DHT22;13825;53.496;10.020;2022-09-09T12:34:28;20.80;99.90
26051;DHT22;13825;53.496;10.020;2022-09-09T12:37:14;20.60;99.90
26051;DHT22;13825;53.496;10.020;2022-09-09T12:43:19;20.60;99.90
26051;DHT22;13825;53.496;10.020;2022-09-09T12:45:52;20.50;99.90
26051;DHT22;13825;53.496;10.020;2022-09-09T12:48:40;20.10;99.90
26051;DHT22;13825;53.496;10.020;2022-09-09T12:51:26;19.80;99.90
26051;DHT22;13825;53.496;10.020;2022-09-09T12:54:04;19.50;99.90
26051;DHT22;13825;53.496;10.020;2022-09-09T12:57:10;19.10;99.90
26051;DHT22;13825;53.496;10.020;2022-09-09T13:03:52;18.60;99.90
26051;DHT22;13825;53.496;10.020;2022-09-09T13:07:05;18.40;99.90
26051;DHT22;13825;53.496;10.020;2022-09-09T13:09:51;18.10;99.90
26051;DHT22;13825;53.496;10.020;2022-09-09T13:12:25;18.20;99.90
26051;DHT22;13825;53.496;10.020;2022-09-09T13:15:19;18.10;99.90
26051;DHT22;13825;53.496;10.020;2022-09-09T13:18:03;18.00;99.90
26051;DHT22;13825;53.496;10.020;2022-09-09T13:21:01;18.00;99.90
26051;DHT22;13825;53.496;10.020;2022-09-09T13:27:36;17.90;99.90
26051;DHT22;13825;53.496;10.020;2022-09-09T13:30:20;17.70;99.90
26051;DHT22;13825;53.496;10.020;2022-09-09T13:33:01;17.50;99.90
26051;DHT22;13825;53.496;10.020;2022-09-09T13:35:44;17.40;99.90
26051;DHT22;13825;53.496;10.020;2022-09-09T13:38:17;17.30;99.90
26051;DHT22;13825;53.496;10.020;2022-09-09T13:40:56;17.30;99.90
26051;DHT22;13825;53.496;10.020;2022-09-09T13:43:48;17.20;99.90
26051;DHT22;13825;53.496;10.020;2022-09-09T13:46:26;17.10;99.90
26051;DHT22;13825;53.496;10.020;2022-09-09T13:48:56;17.10;99.90
26051;DHT22;13825;53.496;10.020;2022-09-09T13:51:35;17.00;99.90
26051;DHT22;13825;53.496;10.020;2022-09-09T13:54:03;17.00;99.90
26051;DHT22;13825;53.496;10.020;2022-09-09T13:56:31;17.10;99.90
26051;DHT22;13825;53.496;10.020;2022-09-09T13:59:00;17.00;99.90
26051;DHT22;13825;53.496;10.020;2022-09-09T14:01:27;17.00;99.90
26051;DHT22;13825;53.496;10.020;2022-09-09T14:03:54;16.80;99.90
26051;DHT22;13825;53.496;10.020;2022-09-09T14:06:21;16.80;99.90
26051;DHT22;13825;53.496;10.020;2022-09-09T14:08:49;16.80;99.90
26051;DHT22;13825;53.496;10.020;2022-09-09T14:11:18;16.80;99.90
26051;DHT22;13825;53.496;10.020;2022-09-09T14:13:46;16.90;99.90
26051;DHT22;13825;53.496;10.020;2022-09-09T14:16:16;16.60;99.90
26051;DHT22;13825;53.496;10.020;2022-09-09T14:18:44;16.90;99.90
26051;DHT22;13825;53.496;10.020;2022-09-09T14:21:11;16.90;99.90
26051;DHT22;13825;53.496;10.020;2022-09-09T14:23:38;16.60;99.90
26051;DHT22;13825;53.496;10.020;2022-09-09T14:26:06;16.70;99.90
26051;DHT22;13825;53.496;10.020;2022-09-09T14:28:33;16.60;99.90
26051;DHT22;13825;53.496;10.020;2022-09-09T14:31:01;16.60;99.90
26051;DHT22;13825;53.496;10.020;2022-09-09T14:33:30;16.50;99.90
26051;DHT22;13825;53.496;10.020;2022-09-09T14:35:58;16.50;99.90
26051;DHT22;13825;53.496;10.020;2022-09-09T14:38:33;16.50;99.90
26051;DHT22;13825;53.496;10.020;2022-09-09T14:41:04;16.30;99.90
26051;DHT22;13825;53.496;10.020;2022-09-09T14:43:38;16.30;99.90
26051;DHT22;13825;53.496;10.020;2022-09-09T14:46:09;16.30;99.90
26051;DHT22;13825;53.496;10.020;2022-09-09T14:48:37;16.20;99.90
26051;DHT22;13825;53.496;10.020;2022-09-09T14:54:35;16.00;99.90
26051;DHT22;13825;53.496;10.020;2022-09-09T14:57:18;15.90;99.90
26051;DHT22;13825;53.496;10.020;2022-09-09T14:59:48;15.90;99.90
26051;DHT22;13825;53.496;10.020;2022-09-09T15:02:16;16.00;99.90
26051;DHT22;13825;53.496;10.020;2022-09-09T15:04:44;16.00;99.90
26051;DHT22;13825;53.496;10.020;2022-09-09T15:07:12;15.90;99.90
26051;DHT22;13825;53.496;10.020;2022-09-09T15:09:39;16.10;99.90
26051;DHT22;13825;53.496;10.020;2022-09-09T15:12:06;16.10;99.90
26051;DHT22;13825;53.496;10.020;2022-09-09T15:14:35;16.10;99.90
26051;DHT22;13825;53.496;10.020;2022-09-09T15:50:39;18.80;99.90
26051;DHT22;13825;53.496;10.020;2022-09-09T15:53:06;19.40;99.90
26051;DHT22;13825;53.496;10.020;2022-09-09T15:55:33;19.70;99.90
26051;DHT22;13825;53.496;10.020;2022-09-09T15:58:00;19.80;99.90
26051;DHT22;13825;53.496;10.020;2022-09-09T16:00:26;19.80;99.90
26051;DHT22;13825;53.496;10.020;2022-09-09T16:02:54;19.90;99.90
26051;DHT22;13825;53.496;10.020;2022-09-09T16:05:21;20.10;99.90
26051;DHT22;13825;53.496;10.020;2022-09-09T16:07:52;20.50;99.90
26051;DHT22;13825;53.496;10.020;2022-09-09T16:10:19;20.40;99.90
26051;DHT22;13825;53.496;10.020;2022-09-09T16:12:46;20.80;99.90
26051;DHT22;13825;53.496;10.020;2022-09-09T16:15:14;21.40;99.90
26051;DHT22;13825;53.496;10.020;2022-09-09T16:17:41;21.90;99.90
26051;DHT22;13825;53.496;10.020;2022-09-09T16:20:08;22.40;99.90
26051;DHT22;13825;53.496;10.020;2022-09-09T16:22:37;22.20;99.90
26051;DHT22;13825;53.496;10.020;2022-09-09T16:25:06;22.30;99.90
26051;DHT22;13825;53.496;10.020;2022-09-09T16:27:33;22.20;99.90
26051;DHT22;13825;53.496;10.020;2022-09-09T16:30:00;22.10;99.90
26051;DHT22;13825;53.496;10.020;2022-09-09T16:32:27;22.10;99.90
26051;DHT22;13825;53.496;10.020;2022-09-09T16:34:54;21.70;99.90
26051;DHT22;13825;53.496;10.020;2022-09-09T16:37:21;21.70;99.90
26051;DHT22;13825;53.496;10.020;2022-09-09T16:39:48;21.90;99.90
26051;DHT22;13825;53.496;10.020;2022-09-09T16:42:17;21.90;99.90
26051;DHT22;13825;53.496;10.020;2022-09-09T16:44:44;22.10;99.90
26051;DHT22;13825;53.496;10.020;2022-09-09T16:47:11;22.00;99.90
26051;DHT22;13825;53.496;10.020;2022-09-09T16:49:38;21.60;99.90